createdAt,value
2018-06-17T00:00:50.441Z,100.00
2018-06-17T00:03:17.340Z,100.00
2018-06-17T00:05:44.249Z,100.00
2018-06-17T00:08:11.217Z,100.00
2018-06-17T00:10:38.129Z,99.55
2018-06-17T00:13:05.118Z,98.70
2018-06-17T00:15:32.022Z,98.75
2018-06-17T00:17:58.909Z,99.28
2018-06-17T00:20:25.825Z,99.62
2018-06-17T00:22:52.868Z,100.00
2018-06-17T00:25:19.761Z,100.00
2018-06-17T00:27:46.661Z,100.00
2018-06-17T00:30:13.586Z,100.00
2018-06-17T00:32:40.478Z,100.00
2018-06-17T00:35:07.386Z,100.00
2018-06-17T00:37:34.536Z,100.00
2018-06-17T00:40:01.434Z,100.00
2018-06-17T00:42:28.353Z,100.00
2018-06-17T00:44:55.261Z,100.00
2018-06-17T00:47:22.192Z,100.00
2018-06-17T00:49:49.058Z,100.00
2018-06-17T00:52:15.985Z,100.00
2018-06-17T00:54:42.878Z,100.00
2018-06-17T00:57:21.449Z,100.00
2018-06-17T00:59:48.325Z,100.00
2018-06-17T01:02:15.225Z,100.00
2018-06-17T01:04:42.117Z,100.00
2018-06-17T01:07:09.013Z,100.00
2018-06-17T01:09:35.895Z,100.00
2018-06-17T01:12:02.833Z,100.00
2018-06-17T01:14:29.711Z,100.00
2018-06-17T01:16:56.622Z,100.00
2018-06-17T01:19:23.524Z,100.00
2018-06-17T01:21:50.433Z,100.00
2018-06-17T01:24:17.314Z,100.00
2018-06-17T01:26:44.229Z,100.00
2018-06-17T01:29:11.117Z,100.00
2018-06-17T01:31:38.017Z,100.00
2018-06-17T01:34:05.033Z,100.00
2018-06-17T01:36:31.924Z,100.00
2018-06-17T01:38:58.825Z,100.00
2018-06-17T01:41:25.733Z,100.00
2018-06-17T01:43:52.622Z,100.00
2018-06-17T01:46:19.533Z,100.00
2018-06-17T01:48:46.492Z,100.00
2018-06-17T01:51:13.401Z,100.00
2018-06-17T01:53:40.298Z,100.00
2018-06-17T01:56:07.222Z,100.00
2018-06-17T01:58:34.124Z,100.00
2018-06-17T02:01:01.033Z,100.00
2018-06-17T02:03:33.686Z,100.00
2018-06-17T02:06:06.369Z,100.00
2018-06-17T02:08:39.070Z,100.00
2018-06-17T02:11:11.722Z,100.00
2018-06-17T02:13:38.624Z,100.00
2018-06-17T02:16:05.539Z,100.00
2018-06-17T02:18:32.437Z,100.00
2018-06-17T02:20:59.328Z,100.00
2018-06-17T02:23:26.237Z,100.00
2018-06-17T02:25:53.151Z,100.00
2018-06-17T02:28:20.053Z,100.00
2018-06-17T02:30:46.948Z,100.00
2018-06-17T02:33:13.858Z,100.00
2018-06-17T02:35:40.746Z,100.00
2018-06-17T02:38:07.645Z,100.00
2018-06-17T02:40:34.538Z,100.00
2018-06-17T02:43:01.444Z,100.00
2018-06-17T02:45:34.073Z,100.00
2018-06-17T02:48:06.733Z,100.00
2018-06-17T02:50:39.377Z,100.00
2018-06-17T02:53:12.013Z,100.00
2018-06-17T02:55:38.899Z,100.00
2018-06-17T02:58:05.805Z,100.00
2018-06-17T03:00:32.741Z,100.00
2018-06-17T03:02:59.665Z,100.00
2018-06-17T03:05:26.559Z,100.00
2018-06-17T03:07:53.530Z,100.00
2018-06-17T03:10:20.438Z,100.00
2018-06-17T03:12:47.339Z,100.00
2018-06-17T03:15:14.225Z,100.00
2018-06-17T03:17:41.160Z,100.00
2018-06-17T03:20:08.045Z,100.00
2018-06-17T03:22:34.950Z,100.00
2018-06-17T03:25:07.733Z,100.00
2018-06-17T03:27:40.462Z,100.00
2018-06-17T03:30:13.143Z,100.00
2018-06-17T03:32:45.753Z,100.00
2018-06-17T03:35:18.508Z,100.00
2018-06-17T03:37:45.418Z,100.00
2018-06-17T03:40:12.466Z,100.00
2018-06-17T03:42:39.403Z,100.00
2018-06-17T03:45:06.324Z,100.00
2018-06-17T03:47:33.253Z,100.00
2018-06-17T03:50:00.173Z,100.00
2018-06-17T03:52:27.065Z,100.00
2018-06-17T03:54:53.985Z,100.00
2018-06-17T03:57:20.896Z,100.00
2018-06-17T03:59:47.800Z,100.00
2018-06-17T04:02:14.709Z,100.00
2018-06-17T04:04:47.409Z,100.00
2018-06-17T04:07:14.301Z,100.00
2018-06-17T04:09:41.197Z,100.00
2018-06-17T04:12:08.085Z,100.00
2018-06-17T04:14:35.009Z,100.00
2018-06-17T04:17:08.662Z,100.00
2018-06-17T04:19:35.590Z,100.00
2018-06-17T04:22:02.493Z,100.00
2018-06-17T04:24:29.405Z,100.00
2018-06-17T04:26:56.347Z,100.00
2018-06-17T04:29:23.265Z,100.00
2018-06-17T04:31:50.164Z,100.00
2018-06-17T04:34:17.074Z,100.00
2018-06-17T04:36:43.981Z,100.00
2018-06-17T04:39:10.902Z,100.00
2018-06-17T04:41:37.795Z,100.00
2018-06-17T04:44:04.772Z,100.00
2018-06-17T04:46:31.677Z,100.00
2018-06-17T04:48:58.605Z,100.00
2018-06-17T04:51:25.525Z,100.00
2018-06-17T04:53:52.443Z,100.00
2018-06-17T04:56:19.353Z,100.00
2018-06-17T04:58:46.268Z,100.00
2018-06-17T05:01:13.248Z,100.00
2018-06-17T05:03:40.161Z,100.00
2018-06-17T05:06:07.099Z,99.02
2018-06-17T05:08:34.005Z,99.63
2018-06-17T05:11:00.929Z,98.70
2018-06-17T05:13:27.843Z,98.91
2018-06-17T05:15:54.766Z,98.52
2018-06-17T05:18:21.674Z,96.58
2018-06-17T05:20:48.589Z,94.37
2018-06-17T05:23:15.531Z,94.50
2018-06-17T05:25:42.441Z,94.26
2018-06-17T05:28:09.341Z,93.96
2018-06-17T05:30:36.256Z,92.31
2018-06-17T05:33:03.190Z,92.79
2018-06-17T05:35:30.095Z,91.40
2018-06-17T05:37:57.004Z,90.90
2018-06-17T05:40:23.921Z,90.53
2018-06-17T05:42:50.820Z,91.18
2018-06-17T05:45:17.709Z,90.93
2018-06-17T05:47:44.588Z,90.28
2018-06-17T05:50:11.485Z,89.34
2018-06-17T05:52:38.385Z,88.18
2018-06-17T05:55:05.288Z,89.77
2018-06-17T05:57:32.175Z,87.74
2018-06-17T05:59:59.069Z,86.26
2018-06-17T06:02:25.969Z,86.69
2018-06-17T06:04:52.860Z,84.26
2018-06-17T06:07:19.749Z,82.16
2018-06-17T06:09:46.653Z,81.79
2018-06-17T06:12:13.537Z,80.03
2018-06-17T06:14:40.434Z,80.33
2018-06-17T06:17:07.341Z,79.39
2018-06-17T06:19:34.278Z,78.55
2018-06-17T06:22:01.174Z,77.66
2018-06-17T06:24:28.105Z,78.41
2018-06-17T06:26:55.025Z,79.04
2018-06-17T06:29:21.933Z,79.72
2018-06-17T06:31:48.836Z,79.12
2018-06-17T06:34:15.733Z,80.84
2018-06-17T06:36:42.660Z,80.22
2018-06-17T06:39:10.273Z,78.38
2018-06-17T06:41:37.174Z,74.79
2018-06-17T06:44:04.173Z,72.57
2018-06-17T06:46:31.080Z,72.47
2018-06-17T06:48:57.972Z,71.28
2018-06-17T06:51:24.896Z,69.87
2018-06-17T06:53:51.810Z,70.51
2018-06-17T06:56:18.722Z,69.58
2018-06-17T06:58:45.624Z,70.18
2018-06-17T07:01:13.140Z,70.47
2018-06-17T07:04:49.481Z,68.32
2018-06-17T07:07:27.913Z,69.57
2018-06-17T07:10:05.893Z,70.95
2018-06-17T07:12:32.793Z,67.86
2018-06-17T07:14:59.697Z,68.32
2018-06-17T07:17:38.240Z,68.47
2018-06-17T07:20:05.148Z,66.25
2018-06-17T07:22:32.112Z,65.16
2018-06-17T07:24:59.077Z,64.79
2018-06-17T07:27:37.509Z,66.96
2018-06-17T07:30:04.422Z,67.45
2018-06-17T07:32:31.341Z,69.01
2018-06-17T07:34:58.249Z,69.85
2018-06-17T07:37:25.190Z,69.19
2018-06-17T07:40:12.022Z,69.45
2018-06-17T07:42:38.934Z,67.95
2018-06-17T07:45:05.840Z,66.66
2018-06-17T07:47:33.261Z,67.23
2018-06-17T07:50:12.792Z,65.55
2018-06-17T07:52:51.389Z,64.17
2018-06-17T07:55:18.288Z,64.05
2018-06-17T07:57:45.194Z,59.63
2018-06-17T08:00:12.102Z,61.91
2018-06-17T08:02:39.014Z,63.56
2018-06-17T08:05:05.909Z,65.35
2018-06-17T08:07:32.837Z,65.82
2018-06-17T08:09:59.744Z,64.12
2018-06-17T08:12:26.662Z,66.62
2018-06-17T08:14:53.550Z,66.55
2018-06-17T08:17:20.458Z,65.19
2018-06-17T08:19:47.369Z,62.59
2018-06-17T08:22:14.277Z,60.02
2018-06-17T08:24:41.209Z,58.61
2018-06-17T08:27:08.132Z,57.87
2018-06-17T08:29:37.517Z,56.66
2018-06-17T08:32:06.677Z,56.97
2018-06-17T08:34:33.585Z,55.65
2018-06-17T08:37:00.480Z,56.71
2018-06-17T08:39:27.385Z,59.17
2018-06-17T08:41:54.316Z,59.85
2018-06-17T08:44:21.639Z,61.13
2018-06-17T08:46:49.053Z,60.87
2018-06-17T08:49:16.241Z,60.50
2018-06-17T08:51:43.145Z,60.24
2018-06-17T08:54:10.138Z,61.37
2018-06-17T08:56:37.173Z,60.82
2018-06-17T08:59:04.089Z,61.63
2018-06-17T09:01:31.265Z,62.48
2018-06-17T09:03:58.220Z,60.45
2018-06-17T09:06:25.133Z,60.35
2018-06-17T09:08:53.445Z,61.17
2018-06-17T09:11:22.672Z,60.44
2018-06-17T09:13:52.359Z,58.35
2018-06-17T09:16:21.412Z,59.24
2018-06-17T09:18:49.267Z,59.94
2018-06-17T09:21:17.587Z,59.08
2018-06-17T09:23:46.472Z,60.15
2018-06-17T09:26:16.579Z,58.89
2018-06-17T09:28:43.529Z,59.13
2018-06-17T09:31:12.002Z,57.95
2018-06-17T09:33:41.070Z,56.38
2018-06-17T09:36:07.976Z,58.52
2018-06-17T09:38:34.878Z,58.87
2018-06-17T09:41:01.808Z,56.28
2018-06-17T09:43:28.713Z,55.87
2018-06-17T09:45:55.685Z,56.06
2018-06-17T09:48:22.568Z,57.12
2018-06-17T09:50:49.481Z,58.37
2018-06-17T09:53:16.360Z,58.79
2018-06-17T09:55:43.829Z,57.45
2018-06-17T09:58:10.773Z,57.79
2018-06-17T10:00:37.673Z,58.46
2018-06-17T10:03:04.633Z,58.80
2018-06-17T10:05:31.570Z,56.11
2018-06-17T10:07:58.481Z,56.32
2018-06-17T10:10:52.806Z,55.38
2018-06-17T10:13:20.460Z,56.63
2018-06-17T10:15:48.027Z,57.23
2018-06-17T10:18:17.919Z,57.63
2018-06-17T10:20:44.856Z,56.84
2018-06-17T10:23:11.931Z,57.26
2018-06-17T10:25:38.885Z,58.53
2018-06-17T10:28:06.327Z,58.53
2018-06-17T10:30:34.015Z,58.22
2018-06-17T10:33:00.965Z,58.49
2018-06-17T10:35:27.849Z,56.76
2018-06-17T10:37:54.733Z,56.54
2018-06-17T10:40:21.624Z,55.36
2018-06-17T10:42:48.994Z,56.34
2018-06-17T10:45:16.289Z,56.36
2018-06-17T10:47:43.794Z,56.01
2018-06-17T10:50:10.713Z,57.83
2018-06-17T10:52:38.474Z,56.58
2018-06-17T10:55:05.564Z,56.10
2018-06-17T10:57:32.689Z,55.06
2018-06-17T10:59:59.592Z,53.02
2018-06-17T11:02:26.513Z,52.52
2018-06-17T11:04:53.431Z,52.46
2018-06-17T11:07:20.529Z,53.51
2018-06-17T11:09:47.483Z,54.09
2018-06-17T11:12:14.470Z,55.34
2018-06-17T11:14:41.361Z,53.88
2018-06-17T11:17:08.298Z,55.38
2018-06-17T11:19:35.230Z,54.30
2018-06-17T11:22:02.125Z,54.87
2018-06-17T11:24:29.021Z,54.17
2018-06-17T11:26:55.941Z,54.44
2018-06-17T11:29:22.837Z,54.40
2018-06-17T11:31:49.741Z,55.35
2018-06-17T11:34:16.748Z,52.36
2018-06-17T11:36:43.657Z,53.15
2018-06-17T11:39:10.686Z,51.78
2018-06-17T11:41:37.514Z,50.32
2018-06-17T11:44:04.786Z,50.12
2018-06-17T11:46:31.696Z,50.08
2018-06-17T11:48:58.622Z,51.20
2018-06-17T11:51:25.704Z,50.65
2018-06-17T11:53:52.668Z,51.60
2018-06-17T11:56:19.577Z,47.70
2018-06-17T11:58:46.481Z,49.11
2018-06-17T12:01:13.394Z,48.41
2018-06-17T12:03:40.303Z,49.84
2018-06-17T12:06:07.308Z,49.20
2018-06-17T12:08:34.269Z,49.63
2018-06-17T12:11:01.189Z,49.95
2018-06-17T12:13:28.109Z,49.76
2018-06-17T12:15:55.013Z,50.31
2018-06-17T12:18:21.955Z,51.95
2018-06-17T12:20:48.873Z,48.66
2018-06-17T12:23:15.768Z,48.21
2018-06-17T12:25:42.696Z,47.40
2018-06-17T12:28:09.589Z,48.97
2018-06-17T12:30:36.505Z,50.57
2018-06-17T12:33:03.431Z,52.52
2018-06-17T12:35:30.341Z,53.01
2018-06-17T12:37:57.249Z,54.28
2018-06-17T12:40:24.144Z,53.90
2018-06-17T12:42:51.137Z,61.26
2018-06-17T12:45:18.046Z,80.44
2018-06-17T12:47:44.957Z,81.32
2018-06-17T12:50:11.942Z,85.60
2018-06-17T12:52:38.857Z,87.37
2018-06-17T12:55:05.744Z,87.30
2018-06-17T12:57:32.657Z,87.35
2018-06-17T13:00:01.718Z,87.07
2018-06-17T13:02:31.812Z,88.74
2018-06-17T13:04:58.738Z,88.38
2018-06-17T13:07:25.896Z,87.06
2018-06-17T13:09:52.896Z,88.67
2018-06-17T13:12:19.801Z,85.30
2018-06-17T13:14:46.817Z,83.22
2018-06-17T13:17:14.064Z,83.68
2018-06-17T13:19:41.109Z,82.76
2018-06-17T13:22:08.009Z,83.72
2018-06-17T13:24:35.174Z,80.35
2018-06-17T13:27:02.094Z,80.87
2018-06-17T13:29:28.985Z,78.74
2018-06-17T13:31:55.897Z,78.86
2018-06-17T13:34:22.851Z,78.53
2018-06-17T13:36:49.769Z,75.45
2018-06-17T13:39:16.677Z,74.27
2018-06-17T13:41:43.572Z,72.87
2018-06-17T13:44:10.464Z,69.91
2018-06-17T13:46:37.390Z,70.75
2018-06-17T13:49:04.381Z,69.23
2018-06-17T13:51:31.281Z,68.95
2018-06-17T13:53:58.568Z,69.46
2018-06-17T13:56:25.479Z,66.45
2018-06-17T13:58:52.369Z,65.34
2018-06-17T14:01:19.267Z,63.17
2018-06-17T14:03:46.165Z,62.71
2018-06-17T14:06:13.060Z,63.43
2018-06-17T14:08:39.961Z,62.86
2018-06-17T14:11:06.904Z,63.91
2018-06-17T14:13:33.914Z,62.77
2018-06-17T14:16:00.712Z,61.46
2018-06-17T14:18:27.640Z,62.85
2018-06-17T14:20:54.524Z,62.81
2018-06-17T14:23:21.429Z,59.63
2018-06-17T14:25:48.321Z,59.13
2018-06-17T14:28:15.221Z,59.21
2018-06-17T14:30:42.116Z,57.63
2018-06-17T14:33:09.008Z,58.73
2018-06-17T14:35:35.900Z,57.53
2018-06-17T14:38:02.840Z,57.59
2018-06-17T14:40:34.349Z,58.66
2018-06-17T14:43:07.080Z,57.68
2018-06-17T14:45:39.790Z,58.20
2018-06-17T14:48:12.536Z,57.94
2018-06-17T14:50:45.085Z,57.07
2018-06-17T14:53:12.144Z,56.62
2018-06-17T14:55:39.033Z,56.66
2018-06-17T14:58:05.928Z,56.43
2018-06-17T15:00:32.817Z,55.77
2018-06-17T15:02:59.733Z,55.11
2018-06-17T15:05:26.641Z,53.57
2018-06-17T15:07:53.582Z,55.17
2018-06-17T15:10:20.479Z,54.45
2018-06-17T15:12:47.428Z,55.09
2018-06-17T15:15:14.592Z,53.22
2018-06-17T15:17:41.453Z,53.80
2018-06-17T15:20:08.434Z,53.88
2018-06-17T15:22:35.285Z,53.51
2018-06-17T15:25:02.647Z,54.22
2018-06-17T15:27:29.553Z,54.20
2018-06-17T15:29:56.460Z,54.47
2018-06-17T15:33:31.839Z,52.95
2018-06-17T15:36:04.501Z,52.93
2018-06-17T15:38:37.152Z,52.43
2018-06-17T15:41:09.765Z,51.15
2018-06-17T15:43:36.678Z,49.47
2018-06-17T15:46:03.584Z,51.07
2018-06-17T15:48:30.486Z,52.04
2018-06-17T15:50:57.443Z,52.99
2018-06-17T15:53:24.349Z,51.77
2018-06-17T15:55:51.268Z,51.27
2018-06-17T15:58:18.209Z,51.31
2018-06-17T16:00:45.128Z,50.75
2018-06-17T16:03:12.020Z,49.43
2018-06-17T16:05:38.941Z,49.16
2018-06-17T16:08:05.838Z,48.64
2018-06-17T16:10:32.755Z,49.70
2018-06-17T16:13:05.371Z,49.38
2018-06-17T16:15:38.021Z,49.35
2018-06-17T16:18:10.656Z,51.38
2018-06-17T16:20:43.338Z,52.48
2018-06-17T16:23:10.243Z,52.29
2018-06-17T16:25:37.189Z,53.30
2018-06-17T16:28:04.099Z,52.82
2018-06-17T16:30:31.110Z,52.40
2018-06-17T16:32:58.014Z,52.83
2018-06-17T16:35:24.924Z,52.07
2018-06-17T16:37:51.837Z,52.19
2018-06-17T16:40:18.756Z,52.38
2018-06-17T16:42:45.942Z,52.75
2018-06-17T16:45:13.090Z,53.02
2018-06-17T16:47:40.006Z,53.59
2018-06-17T16:50:06.904Z,53.44
2018-06-17T16:52:42.901Z,52.63
2018-06-17T16:55:17.212Z,53.68
2018-06-17T16:57:49.842Z,53.46
2018-06-17T17:00:18.888Z,53.87
2018-06-17T17:02:46.265Z,55.04
2018-06-17T17:05:13.420Z,54.52
2018-06-17T17:07:40.703Z,54.82
2018-06-17T17:10:07.643Z,55.28
2018-06-17T17:12:34.570Z,53.55
2018-06-17T17:15:01.493Z,54.35
2018-06-17T17:17:28.446Z,53.83
2018-06-17T17:19:55.348Z,54.45
2018-06-17T17:22:22.253Z,53.89
2018-06-17T17:24:49.436Z,54.54
2018-06-17T17:27:16.349Z,54.67
2018-06-17T17:29:43.248Z,55.24
2018-06-17T17:32:15.884Z,55.17
2018-06-17T17:34:48.561Z,55.52
2018-06-17T17:37:21.346Z,55.96
2018-06-17T17:39:54.106Z,56.33
2018-06-17T17:42:21.025Z,56.28
2018-06-17T17:44:53.822Z,56.35
2018-06-17T17:47:22.674Z,56.01
2018-06-17T17:49:49.713Z,56.62
2018-06-17T17:52:16.626Z,54.69
2018-06-17T17:54:43.751Z,54.38
2018-06-17T17:57:10.673Z,55.69
2018-06-17T17:59:37.808Z,56.06
2018-06-17T18:02:05.092Z,55.54
2018-06-17T18:04:32.053Z,55.12
2018-06-17T18:06:59.118Z,55.28
2018-06-17T18:09:26.080Z,56.04
2018-06-17T18:11:52.996Z,56.00
2018-06-17T18:14:19.900Z,54.92
2018-06-17T18:16:46.851Z,56.14
2018-06-17T18:19:13.768Z,55.92
2018-06-17T18:21:40.681Z,56.79
2018-06-17T18:24:07.598Z,56.98
2018-06-17T18:26:40.314Z,57.08
2018-06-17T18:29:12.965Z,57.52
2018-06-17T18:31:45.650Z,58.22
2018-06-17T18:34:18.325Z,57.38
2018-06-17T18:36:45.233Z,57.77
2018-06-17T18:39:12.208Z,59.34
2018-06-17T18:41:39.228Z,57.26
2018-06-17T18:44:06.128Z,57.31
2018-06-17T18:46:33.126Z,57.99
2018-06-17T18:49:00.175Z,58.41
2018-06-17T18:51:27.371Z,58.42
2018-06-17T18:53:54.273Z,59.23
2018-06-17T18:56:21.216Z,59.51
2018-06-17T18:58:48.233Z,59.83
2018-06-17T19:01:15.124Z,60.41
2018-06-17T19:03:42.228Z,61.13
2018-06-17T19:06:10.034Z,61.75
2018-06-17T19:08:42.612Z,62.16
2018-06-17T19:11:15.240Z,62.84
2018-06-17T19:13:47.951Z,63.27
2018-06-17T19:16:20.720Z,63.70
2018-06-17T19:18:47.634Z,63.65
2018-06-17T19:21:14.523Z,63.77
2018-06-17T19:23:41.423Z,64.37
2018-06-17T19:26:08.328Z,64.50
2018-06-17T19:28:35.246Z,64.21
2018-06-17T19:31:02.140Z,64.21
2018-06-17T19:33:29.081Z,64.56
2018-06-17T19:35:55.994Z,64.61
2018-06-17T19:38:22.925Z,65.24
2018-06-17T19:40:49.913Z,65.32
2018-06-17T19:43:16.791Z,66.33
2018-06-17T19:45:43.706Z,66.28
2018-06-17T19:48:10.796Z,66.46
2018-06-17T19:50:43.459Z,66.44
2018-06-17T19:53:16.179Z,66.99
2018-06-17T19:55:48.857Z,67.69
2018-06-17T19:58:25.737Z,67.62
2018-06-17T20:00:55.735Z,67.96
2018-06-17T20:03:22.653Z,67.56
2018-06-17T20:05:49.586Z,68.02
2018-06-17T20:08:16.488Z,67.89
2018-06-17T20:10:43.405Z,68.23
2018-06-17T20:13:10.301Z,69.65
2018-06-17T20:15:37.193Z,68.14
2018-06-17T20:18:04.181Z,69.46
2018-06-17T20:20:31.109Z,68.73
2018-06-17T20:22:58.017Z,69.54
2018-06-17T20:25:24.924Z,69.31
2018-06-17T20:27:52.613Z,69.78
2018-06-17T20:30:19.606Z,70.12
2018-06-17T20:32:52.176Z,70.76
2018-06-17T20:35:24.785Z,70.70
2018-06-17T20:37:57.542Z,70.43
2018-06-17T20:40:30.240Z,70.79
2018-06-17T20:43:02.934Z,71.29
2018-06-17T20:45:29.846Z,71.59
2018-06-17T20:47:56.765Z,71.31
2018-06-17T20:50:23.648Z,71.00
2018-06-17T20:52:50.577Z,71.31
2018-06-17T20:55:17.938Z,72.33
2018-06-17T20:57:45.534Z,72.45
2018-06-17T21:00:12.425Z,72.18
2018-06-17T21:02:39.344Z,72.26
2018-06-17T21:05:06.252Z,73.06
2018-06-17T21:07:33.128Z,72.71
2018-06-17T21:10:00.027Z,73.68
2018-06-17T21:12:26.921Z,74.00
2018-06-17T21:14:53.819Z,73.93
2018-06-17T21:17:20.767Z,74.09
2018-06-17T21:19:53.292Z,74.69
2018-06-17T21:22:25.976Z,74.83
2018-06-17T21:24:58.626Z,75.20
2018-06-17T21:27:31.272Z,75.50
2018-06-17T21:29:58.181Z,75.82
2018-06-17T21:32:25.378Z,75.96
2018-06-17T21:34:52.272Z,75.50
2018-06-17T21:37:19.206Z,76.16
2018-06-17T21:39:46.412Z,76.24
2018-06-17T21:42:13.332Z,76.73
2018-06-17T21:44:40.252Z,76.75
2018-06-17T21:47:07.156Z,76.92
2018-06-17T21:49:34.038Z,76.99
2018-06-17T21:52:01.921Z,76.53
2018-06-17T21:54:28.829Z,77.17
2018-06-17T21:56:55.801Z,77.13
2018-06-17T21:59:22.681Z,77.11
2018-06-17T22:01:49.605Z,76.91
2018-06-17T22:04:22.244Z,76.97
2018-06-17T22:06:49.238Z,76.98
2018-06-17T22:10:22.593Z,77.17
2018-06-17T22:12:55.309Z,77.17
2018-06-17T22:15:27.961Z,77.05
2018-06-17T22:17:55.123Z,77.26
2018-06-17T22:20:22.072Z,77.18
2018-06-17T22:22:48.990Z,76.50
2018-06-17T22:25:16.145Z,76.24
2018-06-17T22:27:43.063Z,76.95
2018-06-17T22:30:09.964Z,76.48
2018-06-17T22:32:36.917Z,76.72
2018-06-17T22:35:03.912Z,76.68
2018-06-17T22:37:30.808Z,76.71
2018-06-17T22:39:57.696Z,76.78
2018-06-17T22:42:24.601Z,76.56
2018-06-17T22:44:51.491Z,76.03
2018-06-17T22:47:24.252Z,76.56
2018-06-17T22:49:51.120Z,75.63
2018-06-17T22:52:17.999Z,75.60
2018-06-17T22:54:49.243Z,75.89
2018-06-17T22:57:21.977Z,76.39
2018-06-17T22:59:54.557Z,76.16
2018-06-17T23:02:27.232Z,76.86
2018-06-17T23:04:59.917Z,76.56
2018-06-17T23:07:32.592Z,77.24
2018-06-17T23:09:59.516Z,77.87
2018-06-17T23:12:26.433Z,78.37
2018-06-17T23:14:53.314Z,77.12
2018-06-17T23:17:20.202Z,77.11
2018-06-17T23:19:47.076Z,76.70
2018-06-17T23:22:14.021Z,77.00
2018-06-17T23:24:40.921Z,75.94
2018-06-17T23:27:07.838Z,76.07
2018-06-17T23:29:34.798Z,76.08
2018-06-17T23:32:01.694Z,75.92
2018-06-17T23:34:28.605Z,76.36
2018-06-17T23:36:55.492Z,76.23
2018-06-17T23:39:22.413Z,76.12
2018-06-17T23:41:49.312Z,76.08
2018-06-17T23:44:16.221Z,76.42
2018-06-17T23:46:48.825Z,77.45
2018-06-17T23:49:21.504Z,78.09
2018-06-17T23:51:54.204Z,79.11
2018-06-17T23:54:26.904Z,79.44
2018-06-17T23:56:53.846Z,79.54
2018-06-17T23:59:20.763Z,80.33
